createdAt,value
2018-11-02T00:01:33.967Z,14.33
2018-11-02T00:04:03.796Z,11.90
2018-11-02T00:06:34.465Z,14.07
2018-11-02T00:09:04.760Z,14.70
2018-11-02T00:11:35.220Z,19.23
2018-11-02T00:14:04.247Z,14.07
2018-11-02T00:16:34.068Z,13.87
2018-11-02T00:19:03.981Z,11.83
2018-11-02T00:21:34.375Z,10.70
2018-11-02T00:24:03.634Z,14.07
2018-11-02T00:26:33.188Z,11.97
2018-11-02T00:29:02.951Z,14.90
2018-11-02T00:31:32.222Z,12.70
2018-11-02T00:34:02.342Z,12.83
2018-11-02T00:36:32.769Z,17.53
2018-11-02T00:39:03.295Z,12.00
2018-11-02T00:41:33.210Z,10.63
2018-11-02T00:44:03.128Z,12.37
2018-11-02T00:46:34.410Z,12.53
2018-11-02T00:49:05.106Z,11.03
2018-11-02T00:51:35.135Z,12.33
2018-11-02T00:54:05.265Z,10.73
2018-11-02T00:56:35.260Z,14.50
2018-11-02T00:59:05.016Z,16.07
2018-11-02T01:01:35.342Z,12.10
2018-11-02T01:04:05.679Z,12.17
2018-11-02T01:06:34.718Z,10.70
2018-11-02T01:09:04.635Z,9.43
2018-11-02T01:11:34.660Z,11.67
2018-11-02T01:14:04.808Z,12.00
2018-11-02T01:16:35.249Z,11.63
2018-11-02T01:19:06.008Z,11.23
2018-11-02T01:21:35.476Z,14.63
2018-11-02T01:24:04.654Z,12.73
2018-11-02T01:26:34.916Z,10.23
2018-11-02T01:29:04.427Z,15.53
2018-11-02T01:31:33.380Z,9.87
2018-11-02T01:34:03.448Z,9.40
2018-11-02T01:36:32.677Z,9.67
2018-11-02T01:39:02.505Z,9.83
2018-11-02T01:41:31.851Z,12.70
2018-11-02T01:44:00.883Z,11.43
2018-11-02T01:46:30.798Z,8.73
2018-11-02T01:49:00.069Z,8.43
2018-11-02T01:51:29.096Z,13.10
2018-11-02T01:53:58.053Z,10.93
2018-11-02T01:56:28.066Z,11.73
2018-11-02T01:58:57.733Z,10.47
2018-11-02T02:01:27.962Z,10.07
2018-11-02T02:03:57.170Z,9.43
2018-11-02T02:06:26.649Z,9.13
2018-11-02T02:08:56.521Z,10.00
2018-11-02T02:11:27.083Z,8.57
2018-11-02T02:13:57.610Z,10.13
2018-11-02T02:16:27.744Z,10.53
2018-11-02T02:18:57.668Z,7.20
2018-11-02T02:21:27.034Z,6.77
2018-11-02T02:23:56.907Z,7.67
2018-11-02T02:26:26.172Z,10.17
2018-11-02T02:28:55.833Z,7.50
2018-11-02T02:31:25.751Z,8.97
2018-11-02T02:33:56.008Z,8.67
2018-11-02T02:36:25.525Z,9.90
2018-11-02T02:38:55.222Z,7.83
2018-11-02T02:41:25.509Z,8.20
2018-11-02T02:43:55.464Z,8.37
2018-11-02T02:46:25.379Z,9.87
2018-11-02T02:48:55.549Z,13.83
2018-11-02T02:51:25.032Z,9.20
2018-11-02T02:53:54.602Z,9.13
2018-11-02T02:56:23.866Z,9.33
2018-11-02T02:58:54.105Z,9.07
2018-11-02T03:01:23.813Z,8.60
2018-11-02T03:03:53.760Z,13.33
2018-11-02T03:06:23.542Z,8.23
2018-11-02T03:08:53.028Z,13.07
2018-11-02T03:11:22.281Z,7.30
2018-11-02T03:13:51.707Z,8.93
2018-11-02T03:16:21.173Z,6.97
2018-11-02T03:18:50.924Z,7.10
2018-11-02T03:21:19.908Z,9.10
2018-11-02T03:23:49.284Z,6.03
2018-11-02T03:26:19.362Z,6.30
2018-11-02T03:28:48.653Z,6.60
2018-11-02T03:31:18.525Z,6.33
2018-11-02T03:33:47.930Z,6.77
2018-11-02T03:36:17.740Z,7.17
2018-11-02T03:38:47.513Z,7.07
2018-11-02T03:41:16.957Z,8.77
2018-11-02T03:43:46.274Z,7.53
2018-11-02T03:46:15.339Z,10.33
2018-11-02T03:48:45.475Z,8.17
2018-11-02T03:51:15.694Z,10.47
2018-11-02T03:53:45.980Z,9.70
2018-11-02T03:56:16.139Z,7.00
2018-11-02T03:58:45.940Z,6.10
2018-11-02T04:01:16.495Z,5.43
2018-11-02T04:03:45.641Z,5.50
2018-11-02T04:06:15.489Z,6.50
2018-11-02T04:08:44.606Z,6.13
2018-11-02T04:11:14.144Z,8.60
2018-11-02T04:13:44.281Z,7.43
2018-11-02T04:16:13.490Z,6.80
2018-11-02T04:18:43.466Z,5.70
2018-11-02T04:21:13.764Z,7.87
2018-11-02T04:23:43.982Z,10.37
2018-11-02T04:26:14.383Z,7.63
2018-11-02T04:28:44.956Z,13.00
2018-11-02T04:31:14.305Z,6.00
2018-11-02T04:33:43.254Z,6.23
2018-11-02T04:36:12.600Z,6.10
2018-11-02T04:38:42.252Z,6.37
2018-11-02T04:41:11.981Z,6.30
2018-11-02T04:43:42.074Z,6.53
2018-11-02T04:46:12.501Z,4.83
2018-11-02T04:48:42.689Z,6.40
2018-11-02T04:51:12.349Z,6.30
2018-11-02T04:53:42.255Z,5.97
2018-11-02T04:56:11.776Z,6.00
2018-11-02T04:58:41.613Z,9.10
2018-11-02T05:01:11.684Z,6.00
2018-11-02T05:03:41.394Z,6.57
2018-11-02T05:06:11.531Z,11.73
2018-11-02T05:08:41.869Z,8.23
2018-11-02T05:11:11.665Z,7.00
2018-11-02T05:13:41.261Z,7.17
2018-11-02T05:16:11.109Z,7.40
2018-11-02T05:18:41.358Z,7.10
2018-11-02T05:21:11.168Z,7.63
2018-11-02T05:23:41.587Z,6.33
2018-11-02T05:26:11.876Z,7.13
2018-11-02T05:28:41.468Z,6.83
2018-11-02T05:31:11.289Z,7.20
2018-11-02T05:33:41.699Z,7.70
2018-11-02T05:36:11.385Z,8.03
2018-11-02T05:38:41.368Z,10.13
2018-11-02T05:41:12.073Z,8.57
2018-11-02T05:43:42.181Z,7.97
2018-11-02T05:46:12.404Z,7.13
2018-11-02T05:48:42.604Z,5.53
2018-11-02T05:51:13.049Z,8.17
2018-11-02T05:53:43.175Z,6.17
2018-11-02T05:56:13.085Z,9.77
2018-11-02T05:58:43.211Z,7.57
2018-11-02T06:01:13.329Z,7.97
2018-11-02T06:03:43.343Z,8.33
2018-11-02T06:06:12.665Z,6.93
2018-11-02T06:08:42.256Z,9.87
2018-11-02T06:11:12.485Z,9.27
2018-11-02T06:13:42.210Z,6.17
2018-11-02T06:16:11.999Z,7.63
2018-11-02T06:18:41.960Z,6.33
2018-11-02T06:21:12.093Z,6.60
2018-11-02T06:23:42.304Z,8.10
2018-11-02T06:26:12.342Z,10.23
2018-11-02T06:28:42.102Z,8.77
2018-11-02T06:31:11.221Z,6.13
2018-11-02T06:33:41.222Z,6.43
2018-11-02T06:36:10.998Z,6.70
2018-11-02T06:38:41.072Z,8.73
2018-11-02T06:41:11.010Z,6.97
2018-11-02T06:43:42.792Z,6.13
2018-11-02T06:46:12.840Z,8.67
2018-11-02T06:48:42.426Z,6.13
2018-11-02T06:51:12.342Z,7.77
2018-11-02T06:53:42.484Z,7.20
2018-11-02T06:56:12.167Z,7.03
2018-11-02T06:58:41.731Z,6.13
2018-11-02T07:01:10.791Z,7.70
2018-11-02T07:03:40.522Z,10.43
2018-11-02T07:06:10.341Z,8.37
2018-11-02T07:08:40.016Z,7.87
2018-11-02T07:11:08.772Z,5.20
2018-11-02T07:13:39.054Z,7.30
2018-11-02T07:16:10.129Z,5.63
2018-11-02T07:18:40.180Z,13.43
2018-11-02T07:21:10.404Z,6.00
2018-11-02T07:23:40.395Z,8.40
2018-11-02T07:26:09.127Z,7.50
2018-11-02T07:28:39.321Z,6.10
2018-11-02T07:31:09.324Z,9.27
2018-11-02T07:33:39.728Z,6.87
2018-11-02T07:36:08.928Z,6.23
2018-11-02T07:38:38.635Z,9.70
2018-11-02T07:41:08.297Z,5.53
2018-11-02T07:43:38.635Z,6.50
2018-11-02T07:46:08.083Z,5.10
2018-11-02T07:48:37.934Z,10.63
2018-11-02T07:51:07.614Z,5.90
2018-11-02T07:53:39.161Z,5.97
2018-11-02T07:56:09.831Z,5.87
2018-11-02T07:58:39.718Z,7.27
2018-11-02T08:01:09.661Z,8.13
2018-11-02T08:03:40.081Z,5.93
2018-11-02T08:06:10.583Z,6.07
2018-11-02T08:08:40.551Z,8.53
2018-11-02T08:11:12.732Z,8.07
2018-11-02T08:13:43.959Z,11.83
2018-11-02T08:16:13.331Z,11.13
2018-11-02T08:18:43.954Z,11.00
2018-11-02T08:21:13.965Z,8.50
2018-11-02T08:23:43.999Z,10.50
2018-11-02T08:26:14.307Z,7.93
2018-11-02T08:28:44.693Z,8.17
2018-11-02T08:31:14.720Z,7.00
2018-11-02T08:33:44.636Z,6.40
2018-11-02T08:36:14.434Z,7.10
2018-11-02T08:38:44.297Z,5.73
2018-11-02T08:41:15.840Z,5.07
2018-11-02T08:43:46.303Z,7.27
2018-11-02T08:46:16.061Z,6.63
2018-11-02T08:48:46.346Z,6.23
2018-11-02T08:51:16.306Z,7.37
2018-11-02T08:53:47.002Z,5.50
2018-11-02T08:56:17.294Z,6.30
2018-11-02T08:58:47.134Z,5.60
2018-11-02T09:01:17.190Z,7.60
2018-11-02T09:03:47.087Z,6.27
2018-11-02T09:06:16.643Z,8.87
2018-11-02T09:08:46.471Z,6.90
2018-11-02T09:11:16.604Z,6.83
2018-11-02T09:13:46.073Z,6.10
2018-11-02T09:16:15.753Z,6.10
2018-11-02T09:18:46.053Z,6.20
2018-11-02T09:21:16.774Z,5.53
2018-11-02T09:23:46.697Z,6.60
2018-11-02T09:26:16.083Z,6.10
2018-11-02T09:28:45.790Z,5.33
2018-11-02T09:31:15.854Z,7.27
2018-11-02T09:33:46.016Z,6.27
2018-11-02T09:36:16.220Z,6.70
2018-11-02T09:38:46.039Z,7.77
2018-11-02T09:41:17.338Z,6.53
2018-11-02T09:43:47.095Z,7.33
2018-11-02T09:46:17.241Z,6.50
2018-11-02T09:48:54.064Z,9.10
2018-11-02T09:51:26.236Z,7.93
2018-11-02T09:53:55.848Z,5.73
2018-11-02T09:56:25.636Z,6.37
2018-11-02T09:58:55.702Z,7.70
2018-11-02T10:01:25.990Z,5.67
2018-11-02T10:03:55.810Z,5.60
2018-11-02T10:06:25.674Z,4.43
2018-11-02T10:08:55.862Z,4.53
2018-11-02T10:11:26.406Z,4.93
2018-11-02T10:13:56.295Z,8.90
2018-11-02T10:16:27.415Z,6.10
2018-11-02T10:18:57.516Z,5.40
2018-11-02T10:21:27.484Z,7.20
2018-11-02T10:23:57.316Z,5.40
2018-11-02T10:26:27.607Z,4.97
2018-11-02T10:28:58.063Z,6.00
2018-11-02T10:31:28.132Z,5.73
2018-11-02T10:33:57.932Z,5.27
2018-11-02T10:36:28.686Z,8.17
2018-11-02T10:38:58.509Z,6.57
2018-11-02T10:41:32.139Z,4.83
2018-11-02T10:44:03.291Z,5.50
2018-11-02T10:46:33.819Z,5.17
2018-11-02T10:49:03.725Z,5.63
2018-11-02T10:51:33.872Z,6.07
2018-11-02T10:54:04.504Z,4.50
2018-11-02T10:56:35.649Z,8.57
2018-11-02T10:59:06.210Z,5.83
2018-11-02T11:01:41.111Z,4.20
2018-11-02T11:04:11.254Z,6.40
2018-11-02T11:06:41.598Z,4.63
2018-11-02T11:09:12.891Z,5.50
2018-11-02T11:11:42.899Z,4.67
2018-11-02T11:14:12.975Z,4.60
2018-11-02T11:16:43.384Z,8.10
2018-11-02T11:19:14.816Z,7.97
2018-11-02T11:21:45.145Z,6.37
2018-11-02T11:24:14.836Z,5.23
2018-11-02T11:26:44.584Z,6.73
2018-11-02T11:29:14.584Z,5.20
2018-11-02T11:31:44.571Z,4.57
2018-11-02T11:34:14.299Z,6.10
2018-11-02T11:36:45.555Z,8.27
2018-11-02T11:39:15.174Z,3.70
2018-11-02T11:41:45.189Z,4.93
2018-11-02T11:44:15.090Z,5.53
2018-11-02T11:46:45.308Z,4.17
2018-11-02T11:49:16.121Z,4.23
2018-11-02T11:51:46.101Z,4.17
2018-11-02T11:54:16.049Z,6.00
2018-11-02T11:56:45.092Z,6.43
2018-11-02T11:59:14.479Z,5.07
2018-11-02T12:01:44.782Z,4.93
2018-11-02T12:04:14.981Z,3.37
2018-11-02T12:06:45.182Z,3.80
2018-11-02T12:09:15.094Z,2.77
2018-11-02T12:11:44.756Z,3.67
2018-11-02T12:14:14.930Z,3.40
2018-11-02T12:16:44.942Z,3.13
2018-11-02T12:19:15.107Z,3.40
2018-11-02T12:21:45.173Z,4.17
2018-11-02T12:24:16.675Z,3.97
2018-11-02T12:26:47.040Z,3.17
2018-11-02T12:29:17.129Z,2.57
2018-11-02T12:31:46.497Z,4.03
2018-11-02T12:34:16.485Z,2.83
2018-11-02T12:36:46.158Z,2.93
2018-11-02T12:39:16.654Z,5.43
2018-11-02T12:41:46.543Z,3.97
2018-11-02T12:44:16.965Z,3.13
2018-11-02T12:46:47.283Z,3.03
2018-11-02T12:49:17.559Z,2.80
2018-11-02T12:51:47.420Z,5.47
2018-11-02T12:54:17.900Z,2.77
2018-11-02T12:56:47.013Z,3.87
2018-11-02T13:01:43.928Z,2.23
2018-11-02T13:04:13.868Z,2.50
2018-11-02T13:06:44.126Z,3.50
2018-11-02T13:09:14.276Z,3.30
2018-11-02T13:11:43.845Z,3.60
2018-11-02T13:14:14.813Z,6.30
2018-11-02T13:16:44.883Z,2.67
2018-11-02T13:19:14.608Z,2.43
2018-11-02T13:21:44.101Z,2.90
2018-11-02T13:24:13.116Z,2.20
2018-11-02T13:26:43.466Z,2.57
2018-11-02T13:29:13.295Z,2.83
2018-11-02T13:31:43.516Z,2.77
2018-11-02T13:34:13.785Z,2.47
2018-11-02T13:36:44.425Z,3.40
2018-11-02T13:39:14.404Z,3.80
2018-11-02T13:41:44.259Z,2.07
2018-11-02T13:44:14.433Z,2.10
2018-11-02T13:46:45.180Z,2.53
2018-11-02T13:49:15.300Z,2.50
2018-11-02T13:51:46.000Z,2.30
2018-11-02T13:54:15.828Z,2.17
2018-11-02T13:56:45.996Z,2.50
2018-11-02T13:59:16.056Z,2.90
2018-11-02T14:01:45.783Z,2.57
2018-11-02T14:04:15.142Z,3.37
2018-11-02T14:06:45.243Z,2.33
2018-11-02T14:09:14.709Z,2.70
2018-11-02T14:11:45.344Z,2.90
2018-11-02T14:14:14.598Z,2.90
2018-11-02T14:16:43.493Z,3.00
2018-11-02T14:19:13.911Z,3.10
2018-11-02T14:21:43.623Z,3.50
2018-11-02T14:24:13.948Z,2.87
2018-11-02T14:26:42.622Z,8.90
2018-11-02T14:29:13.005Z,2.57
2018-11-02T14:31:42.868Z,2.00
2018-11-02T14:34:13.152Z,2.53
2018-11-02T14:36:43.064Z,4.83
2018-11-02T14:39:14.299Z,2.37
2018-11-02T14:41:45.220Z,2.50
2018-11-02T14:44:15.677Z,2.63
2018-11-02T14:46:46.047Z,4.23
2018-11-02T14:49:15.560Z,4.87
2018-11-02T14:51:45.835Z,2.40
2018-11-02T14:54:17.101Z,3.63
2018-11-02T14:56:47.161Z,3.57
2018-11-02T14:59:16.752Z,2.50
2018-11-02T15:01:47.124Z,2.50
2018-11-02T15:04:17.030Z,1.93
2018-11-02T15:06:47.074Z,4.20
2018-11-02T15:09:16.179Z,2.10
2018-11-02T15:11:45.437Z,2.77
2018-11-02T15:14:15.460Z,2.73
2018-11-02T15:16:45.640Z,4.10
2018-11-02T15:19:14.540Z,3.07
2018-11-02T15:21:45.089Z,3.37
2018-11-02T15:24:15.620Z,2.77
2018-11-02T15:26:46.016Z,2.70
2018-11-02T15:29:15.423Z,7.47
2018-11-02T15:31:46.290Z,3.80
2018-11-02T15:34:16.726Z,5.20
2018-11-02T15:36:47.345Z,3.63
2018-11-02T15:39:16.958Z,6.00
2018-11-02T15:41:48.127Z,2.93
2018-11-02T15:44:17.994Z,2.87
2018-11-02T15:46:47.623Z,3.07
2018-11-02T15:49:17.765Z,3.97
2018-11-02T15:51:47.678Z,3.70
2018-11-02T15:54:17.861Z,6.93
2018-11-02T15:56:48.080Z,5.30
2018-11-02T15:59:17.808Z,3.13
2018-11-02T16:01:48.641Z,3.37
2018-11-02T16:04:19.580Z,3.80
2018-11-02T16:06:49.883Z,5.90
2018-11-02T16:09:21.055Z,3.53
2018-11-02T16:11:50.842Z,4.13
2018-11-02T16:14:21.295Z,4.10
2018-11-02T16:16:51.001Z,4.50
2018-11-02T16:19:20.387Z,4.17
2018-11-02T16:21:51.408Z,3.90
2018-11-02T16:24:21.875Z,4.27
2018-11-02T16:26:52.193Z,3.93
2018-11-02T16:29:21.804Z,4.40
2018-11-02T16:31:51.829Z,6.30
2018-11-02T16:34:21.831Z,5.03
2018-11-02T16:36:52.084Z,6.93
2018-11-02T16:39:21.928Z,5.97
2018-11-02T16:41:52.206Z,4.73
2018-11-02T16:44:21.621Z,6.47
2018-11-02T16:46:51.669Z,6.00
2018-11-02T16:49:21.889Z,5.37
2018-11-02T16:51:52.008Z,4.37
2018-11-02T16:54:22.158Z,5.77
2018-11-02T16:56:52.312Z,4.83
2018-11-02T16:59:22.685Z,6.07
2018-11-02T17:01:52.599Z,5.73
2018-11-02T17:04:21.792Z,4.63
2018-11-02T17:06:52.259Z,8.40
2018-11-02T17:09:22.439Z,8.50
2018-11-02T17:11:52.055Z,10.10
2018-11-02T17:14:22.378Z,18.10
2018-11-02T17:16:52.179Z,28.90
2018-11-02T17:19:22.629Z,16.07
2018-11-02T17:21:52.470Z,9.30
2018-11-02T17:24:22.601Z,7.23
2018-11-02T17:26:53.629Z,8.73
2018-11-02T17:29:23.347Z,6.87
2018-11-02T17:31:53.569Z,5.50
2018-11-02T17:34:23.454Z,6.87
2018-11-02T17:36:52.832Z,8.20
2018-11-02T17:39:22.624Z,10.53
2018-11-02T17:41:52.656Z,6.60
2018-11-02T17:44:22.716Z,6.17
2018-11-02T17:46:52.452Z,7.87
2018-11-02T17:49:23.000Z,7.63
2018-11-02T17:51:53.429Z,9.87
2018-11-02T17:54:23.139Z,9.80
2018-11-02T17:56:53.438Z,4.80
2018-11-02T17:59:23.768Z,5.63
2018-11-02T18:01:53.476Z,5.60
2018-11-02T18:04:23.401Z,11.97
2018-11-02T18:06:53.071Z,15.47
2018-11-02T18:09:23.111Z,19.07
2018-11-02T18:11:53.539Z,4.93
2018-11-02T18:14:24.376Z,7.63
2018-11-02T18:16:54.553Z,7.13
2018-11-02T18:19:24.399Z,9.63
2018-11-02T18:21:54.212Z,12.00
2018-11-02T18:24:24.024Z,8.87
2018-11-02T18:26:53.869Z,8.53
2018-11-02T18:29:24.309Z,6.70
2018-11-02T18:31:54.108Z,8.33
2018-11-02T18:34:23.686Z,6.67
2018-11-02T18:36:53.927Z,9.40
2018-11-02T18:39:23.872Z,7.00
2018-11-02T18:41:53.964Z,5.57
2018-11-02T18:44:23.882Z,10.00
2018-11-02T18:46:53.876Z,8.03
2018-11-02T18:49:23.773Z,9.57
2018-11-02T18:51:53.276Z,6.73
2018-11-02T18:54:22.877Z,8.90
2018-11-02T18:56:52.707Z,10.83
2018-11-02T18:59:22.225Z,8.93
2018-11-02T19:01:51.746Z,8.37
2018-11-02T19:04:22.292Z,11.87
2018-11-02T19:06:51.872Z,12.20
2018-11-02T19:09:23.199Z,15.80
2018-11-02T19:11:54.485Z,15.03
2018-11-02T19:14:24.706Z,12.23
2018-11-02T19:16:54.979Z,10.50
2018-11-02T19:19:24.801Z,11.43
2018-11-02T19:21:54.683Z,11.70
2018-11-02T19:24:24.032Z,11.10
2018-11-02T19:26:54.641Z,6.20
2018-11-02T19:29:24.148Z,7.63
2018-11-02T19:31:54.419Z,8.00
2018-11-02T19:34:24.884Z,8.63
2018-11-02T19:36:54.544Z,9.23
2018-11-02T19:39:24.554Z,5.17
2018-11-02T19:41:53.242Z,5.20
2018-11-02T19:44:22.921Z,7.07
2018-11-02T19:46:53.011Z,6.53
2018-11-02T19:49:22.822Z,3.80
2018-11-02T19:51:52.377Z,14.20
2018-11-02T19:54:22.156Z,8.60
2018-11-02T19:56:51.655Z,8.20
2018-11-02T19:59:22.142Z,6.47
2018-11-02T20:01:52.816Z,7.53
2018-11-02T20:04:23.352Z,7.13
2018-11-02T20:06:53.785Z,6.23
2018-11-02T20:09:23.978Z,8.73
2018-11-02T20:11:54.113Z,10.23
2018-11-02T20:14:24.206Z,6.00
2018-11-02T20:16:54.303Z,6.77
2018-11-02T20:19:24.013Z,7.13
2018-11-02T20:21:54.132Z,8.40
2018-11-02T20:24:23.680Z,9.80
2018-11-02T20:26:54.124Z,9.93
2018-11-02T20:29:24.288Z,12.10
2018-11-02T20:31:54.861Z,15.13
2018-11-02T20:34:24.716Z,16.20
2018-11-02T20:36:55.527Z,14.37
2018-11-02T20:39:25.871Z,12.50
2018-11-02T20:41:55.565Z,9.97
2018-11-02T20:44:25.348Z,11.87
2018-11-02T20:46:55.556Z,12.03
2018-11-02T20:49:25.796Z,11.40
2018-11-02T20:51:56.169Z,11.20
2018-11-02T20:54:26.183Z,12.80
2018-11-02T20:56:55.929Z,10.50
2018-11-02T20:59:25.965Z,11.57
2018-11-02T21:01:55.774Z,13.00
2018-11-02T21:04:26.061Z,17.60
2018-11-02T21:06:56.156Z,16.30
2018-11-02T21:09:26.510Z,18.83
2018-11-02T21:11:56.822Z,21.50
2018-11-02T21:14:26.678Z,24.67
2018-11-02T21:16:56.493Z,19.10
2018-11-02T21:19:26.531Z,19.33
2018-11-02T21:21:56.437Z,25.50
2018-11-02T21:24:25.956Z,28.07
2018-11-02T21:26:56.009Z,15.93
2018-11-02T21:29:26.161Z,15.07
2018-11-02T21:31:56.103Z,14.73
2018-11-02T21:34:25.978Z,18.27
2018-11-02T21:36:55.694Z,15.87
2018-11-02T21:39:25.093Z,14.37
2018-11-02T21:41:54.868Z,13.23
2018-11-02T21:44:24.830Z,11.03
2018-11-02T21:46:55.046Z,13.17
2018-11-02T21:49:24.963Z,16.30
2018-11-02T21:51:54.705Z,15.13
2018-11-02T21:54:24.189Z,15.90
2018-11-02T21:56:54.043Z,11.63
2018-11-02T21:59:23.811Z,14.03
2018-11-02T22:01:54.799Z,10.47
2018-11-02T22:04:25.289Z,12.13
2018-11-02T22:06:55.596Z,10.27
2018-11-02T22:09:25.854Z,12.00
2018-11-02T22:11:55.136Z,12.30
2018-11-02T22:14:25.475Z,10.70
2018-11-02T22:16:55.568Z,11.90
2018-11-02T22:19:27.083Z,17.43
2018-11-02T22:21:57.099Z,13.37
2018-11-02T22:24:27.412Z,12.20
2018-11-02T22:26:57.605Z,8.17
2018-11-02T22:29:28.146Z,7.40
2018-11-02T22:31:57.900Z,9.60
2018-11-02T22:34:28.046Z,7.23
2018-11-02T22:36:58.221Z,7.80
2018-11-02T22:39:28.712Z,9.50
2018-11-02T22:41:58.507Z,10.57
2018-11-02T22:44:28.292Z,8.87
2018-11-02T22:46:58.342Z,8.47
2018-11-02T22:49:28.460Z,9.53
2018-11-02T22:51:58.241Z,10.20
2018-11-02T22:54:28.098Z,12.23
2018-11-02T22:56:57.759Z,7.80
2018-11-02T22:59:41.566Z,8.67
2018-11-02T23:02:11.029Z,7.87
2018-11-02T23:04:40.121Z,10.23
2018-11-02T23:07:09.807Z,16.37
2018-11-02T23:09:39.452Z,10.77
2018-11-02T23:12:08.979Z,6.70
2018-11-02T23:14:38.914Z,9.30
2018-11-02T23:17:08.689Z,11.33
2018-11-02T23:19:38.068Z,10.37
2018-11-02T23:22:07.405Z,12.70
2018-11-02T23:24:36.729Z,10.10
2018-11-02T23:27:05.949Z,11.50
2018-11-02T23:29:35.542Z,15.07
2018-11-02T23:32:05.749Z,11.53
2018-11-02T23:34:35.886Z,11.60
2018-11-02T23:37:04.785Z,10.80
2018-11-02T23:39:34.695Z,12.43
2018-11-02T23:42:04.198Z,11.70
2018-11-02T23:44:33.712Z,12.80
2018-11-02T23:47:03.551Z,11.57
2018-11-02T23:49:32.888Z,13.43
2018-11-02T23:52:02.193Z,14.33
2018-11-02T23:54:32.264Z,11.33
2018-11-02T23:57:01.604Z,12.30
2018-11-02T23:59:31.640Z,9.90
